sensor_id;sensor_type;location;lat;lon;timestamp;P1;durP1;ratioP1;P2;durP2;ratioP2
25948;SDS011;13961;51.178;4.448;2023-01-25T00:00:20;76.97;;;30.70;;
25948;SDS011;13961;51.178;4.448;2023-01-25T00:02:46;76.82;;;32.53;;
25948;SDS011;13961;51.178;4.448;2023-01-25T00:05:11;83.25;;;34.15;;
25948;SDS011;13961;51.178;4.448;2023-01-25T00:07:37;74.13;;;31.15;;
25948;SDS011;13961;51.178;4.448;2023-01-25T00:10:03;71.15;;;29.65;;
25948;SDS011;13961;51.178;4.448;2023-01-25T00:12:29;80.90;;;32.55;;
25948;SDS011;13961;51.178;4.448;2023-01-25T00:14:55;81.05;;;31.95;;
25948;SDS011;13961;51.178;4.448;2023-01-25T00:17:20;78.85;;;32.60;;
25948;SDS011;13961;51.178;4.448;2023-01-25T00:19:46;74.57;;;31.27;;
25948;SDS011;13961;51.178;4.448;2023-01-25T00:22:12;78.43;;;32.15;;
25948;SDS011;13961;51.178;4.448;2023-01-25T00:24:37;79.60;;;31.70;;
25948;SDS011;13961;51.178;4.448;2023-01-25T00:27:03;80.05;;;30.85;;
25948;SDS011;13961;51.178;4.448;2023-01-25T00:29:29;77.70;;;32.70;;
25948;SDS011;13961;51.178;4.448;2023-01-25T00:32:01;78.50;;;31.60;;
25948;SDS011;13961;51.178;4.448;2023-01-25T00:34:51;81.53;;;30.20;;
25948;SDS011;13961;51.178;4.448;2023-01-25T00:39:43;81.20;;;31.27;;
25948;SDS011;13961;51.178;4.448;2023-01-25T00:42:09;81.18;;;31.55;;
25948;SDS011;13961;51.178;4.448;2023-01-25T00:44:36;71.28;;;30.02;;
25948;SDS011;13961;51.178;4.448;2023-01-25T00:47:03;77.18;;;30.80;;
25948;SDS011;13961;51.178;4.448;2023-01-25T00:49:32;75.88;;;31.17;;
25948;SDS011;13961;51.178;4.448;2023-01-25T00:51:58;81.65;;;32.17;;
25948;SDS011;13961;51.178;4.448;2023-01-25T00:54:24;79.57;;;29.10;;
25948;SDS011;13961;51.178;4.448;2023-01-25T00:56:50;75.30;;;29.77;;
25948;SDS011;13961;51.178;4.448;2023-01-25T00:59:20;75.65;;;31.13;;
25948;SDS011;13961;51.178;4.448;2023-01-25T01:01:50;75.68;;;31.63;;
25948;SDS011;13961;51.178;4.448;2023-01-25T01:04:17;81.13;;;31.42;;
25948;SDS011;13961;51.178;4.448;2023-01-25T01:06:43;76.47;;;29.90;;
25948;SDS011;13961;51.178;4.448;2023-01-25T01:09:15;74.78;;;29.98;;
25948;SDS011;13961;51.178;4.448;2023-01-25T01:11:41;78.80;;;32.08;;
25948;SDS011;13961;51.178;4.448;2023-01-25T01:14:07;72.10;;;30.95;;
25948;SDS011;13961;51.178;4.448;2023-01-25T01:16:34;75.32;;;29.60;;
25948;SDS011;13961;51.178;4.448;2023-01-25T01:19:01;71.30;;;30.23;;
25948;SDS011;13961;51.178;4.448;2023-01-25T01:21:27;70.93;;;28.75;;
25948;SDS011;13961;51.178;4.448;2023-01-25T01:23:53;71.03;;;29.65;;
25948;SDS011;13961;51.178;4.448;2023-01-25T01:26:19;77.13;;;29.27;;
25948;SDS011;13961;51.178;4.448;2023-01-25T01:28:45;70.47;;;29.95;;
25948;SDS011;13961;51.178;4.448;2023-01-25T01:31:15;66.72;;;27.90;;
25948;SDS011;13961;51.178;4.448;2023-01-25T01:33:43;66.88;;;27.80;;
25948;SDS011;13961;51.178;4.448;2023-01-25T01:36:12;71.65;;;27.98;;
25948;SDS011;13961;51.178;4.448;2023-01-25T01:38:39;67.22;;;27.80;;
25948;SDS011;13961;51.178;4.448;2023-01-25T01:41:05;67.25;;;28.23;;
25948;SDS011;13961;51.178;4.448;2023-01-25T01:43:31;70.53;;;28.85;;
25948;SDS011;13961;51.178;4.448;2023-01-25T01:45:58;63.90;;;27.60;;
25948;SDS011;13961;51.178;4.448;2023-01-25T01:51:27;69.70;;;27.90;;
25948;SDS011;13961;51.178;4.448;2023-01-25T01:54:04;68.60;;;28.65;;
25948;SDS011;13961;51.178;4.448;2023-01-25T01:56:43;68.00;;;28.10;;
25948;SDS011;13961;51.178;4.448;2023-01-25T01:59:14;65.00;;;27.73;;
25948;SDS011;13961;51.178;4.448;2023-01-25T02:01:41;75.05;;;29.08;;
25948;SDS011;13961;51.178;4.448;2023-01-25T02:04:08;64.88;;;28.38;;
25948;SDS011;13961;51.178;4.448;2023-01-25T02:09:15;66.60;;;29.17;;
25948;SDS011;13961;51.178;4.448;2023-01-25T02:11:43;60.00;;;26.80;;
25948;SDS011;13961;51.178;4.448;2023-01-25T02:14:09;70.15;;;28.17;;
25948;SDS011;13961;51.178;4.448;2023-01-25T02:16:35;72.28;;;28.77;;
25948;SDS011;13961;51.178;4.448;2023-01-25T02:19:01;68.97;;;29.15;;
25948;SDS011;13961;51.178;4.448;2023-01-25T02:21:31;69.22;;;27.40;;
25948;SDS011;13961;51.178;4.448;2023-01-25T02:24:06;69.43;;;26.55;;
25948;SDS011;13961;51.178;4.448;2023-01-25T02:26:36;69.60;;;29.13;;
25948;SDS011;13961;51.178;4.448;2023-01-25T02:29:06;67.47;;;27.15;;
25948;SDS011;13961;51.178;4.448;2023-01-25T02:31:33;68.85;;;26.85;;
25948;SDS011;13961;51.178;4.448;2023-01-25T02:33:59;65.47;;;29.10;;
25948;SDS011;13961;51.178;4.448;2023-01-25T02:36:32;71.40;;;28.48;;
25948;SDS011;13961;51.178;4.448;2023-01-25T02:39:00;71.65;;;29.02;;
25948;SDS011;13961;51.178;4.448;2023-01-25T02:41:44;73.38;;;30.23;;
25948;SDS011;13961;51.178;4.448;2023-01-25T02:44:14;70.97;;;28.48;;
25948;SDS011;13961;51.178;4.448;2023-01-25T02:46:41;75.97;;;29.63;;
25948;SDS011;13961;51.178;4.448;2023-01-25T02:49:10;66.30;;;28.35;;
25948;SDS011;13961;51.178;4.448;2023-01-25T02:51:40;71.10;;;28.90;;
25948;SDS011;13961;51.178;4.448;2023-01-25T02:54:10;68.68;;;28.48;;
25948;SDS011;13961;51.178;4.448;2023-01-25T02:56:37;67.68;;;27.88;;
25948;SDS011;13961;51.178;4.448;2023-01-25T02:59:05;73.82;;;29.52;;
25948;SDS011;13961;51.178;4.448;2023-01-25T03:01:35;75.90;;;29.98;;
25948;SDS011;13961;51.178;4.448;2023-01-25T03:04:02;71.15;;;29.25;;
25948;SDS011;13961;51.178;4.448;2023-01-25T03:06:29;75.47;;;30.83;;
25948;SDS011;13961;51.178;4.448;2023-01-25T03:08:55;73.00;;;30.05;;
25948;SDS011;13961;51.178;4.448;2023-01-25T03:11:21;72.18;;;29.70;;
25948;SDS011;13961;51.178;4.448;2023-01-25T03:13:46;70.28;;;28.40;;
25948;SDS011;13961;51.178;4.448;2023-01-25T03:16:13;72.47;;;28.63;;
25948;SDS011;13961;51.178;4.448;2023-01-25T03:18:39;63.75;;;27.65;;
25948;SDS011;13961;51.178;4.448;2023-01-25T03:21:12;67.47;;;27.58;;
25948;SDS011;13961;51.178;4.448;2023-01-25T03:23:40;69.40;;;27.35;;
25948;SDS011;13961;51.178;4.448;2023-01-25T03:26:11;66.00;;;27.33;;
25948;SDS011;13961;51.178;4.448;2023-01-25T03:28:38;71.07;;;28.77;;
25948;SDS011;13961;51.178;4.448;2023-01-25T03:31:06;72.97;;;27.40;;
25948;SDS011;13961;51.178;4.448;2023-01-25T03:33:33;69.90;;;27.20;;
25948;SDS011;13961;51.178;4.448;2023-01-25T03:35:59;68.32;;;27.05;;
25948;SDS011;13961;51.178;4.448;2023-01-25T03:38:25;71.57;;;28.30;;
25948;SDS011;13961;51.178;4.448;2023-01-25T03:40:51;74.35;;;30.05;;
25948;SDS011;13961;51.178;4.448;2023-01-25T03:43:17;68.38;;;28.08;;
25948;SDS011;13961;51.178;4.448;2023-01-25T03:45:43;65.72;;;27.33;;
25948;SDS011;13961;51.178;4.448;2023-01-25T03:48:08;71.40;;;29.27;;
25948;SDS011;13961;51.178;4.448;2023-01-25T03:50:34;78.38;;;30.33;;
25948;SDS011;13961;51.178;4.448;2023-01-25T03:53:00;66.93;;;27.45;;
25948;SDS011;13961;51.178;4.448;2023-01-25T03:55:31;79.57;;;31.35;;
25948;SDS011;13961;51.178;4.448;2023-01-25T03:57:58;77.78;;;29.98;;
25948;SDS011;13961;51.178;4.448;2023-01-25T04:00:24;76.97;;;31.67;;
25948;SDS011;13961;51.178;4.448;2023-01-25T04:02:49;76.10;;;30.80;;
25948;SDS011;13961;51.178;4.448;2023-01-25T04:05:15;79.63;;;30.23;;
25948;SDS011;13961;51.178;4.448;2023-01-25T04:07:41;77.75;;;29.52;;
25948;SDS011;13961;51.178;4.448;2023-01-25T04:10:07;81.07;;;32.00;;
25948;SDS011;13961;51.178;4.448;2023-01-25T04:12:33;74.18;;;29.67;;
25948;SDS011;13961;51.178;4.448;2023-01-25T04:14:59;74.70;;;28.75;;
25948;SDS011;13961;51.178;4.448;2023-01-25T04:17:25;68.55;;;28.35;;
25948;SDS011;13961;51.178;4.448;2023-01-25T04:19:50;74.55;;;30.27;;
25948;SDS011;13961;51.178;4.448;2023-01-25T04:22:16;71.50;;;29.58;;
25948;SDS011;13961;51.178;4.448;2023-01-25T04:24:42;74.68;;;27.85;;
25948;SDS011;13961;51.178;4.448;2023-01-25T04:27:08;71.18;;;27.63;;
25948;SDS011;13961;51.178;4.448;2023-01-25T04:29:34;73.82;;;28.63;;
25948;SDS011;13961;51.178;4.448;2023-01-25T04:32:01;74.70;;;29.38;;
25948;SDS011;13961;51.178;4.448;2023-01-25T04:34:26;71.80;;;28.85;;
25948;SDS011;13961;51.178;4.448;2023-01-25T04:36:52;69.25;;;28.88;;
25948;SDS011;13961;51.178;4.448;2023-01-25T04:39:18;73.85;;;28.35;;
25948;SDS011;13961;51.178;4.448;2023-01-25T04:41:44;76.80;;;28.58;;
25948;SDS011;13961;51.178;4.448;2023-01-25T04:44:09;70.22;;;28.73;;
25948;SDS011;13961;51.178;4.448;2023-01-25T04:46:35;74.35;;;28.73;;
25948;SDS011;13961;51.178;4.448;2023-01-25T04:49:01;77.30;;;29.83;;
25948;SDS011;13961;51.178;4.448;2023-01-25T04:51:28;71.40;;;28.35;;
25948;SDS011;13961;51.178;4.448;2023-01-25T04:53:54;77.72;;;30.63;;
25948;SDS011;13961;51.178;4.448;2023-01-25T04:56:19;76.20;;;28.25;;
25948;SDS011;13961;51.178;4.448;2023-01-25T04:58:45;74.13;;;28.75;;
25948;SDS011;13961;51.178;4.448;2023-01-25T05:01:10;78.43;;;29.40;;
25948;SDS011;13961;51.178;4.448;2023-01-25T05:03:36;75.38;;;29.33;;
25948;SDS011;13961;51.178;4.448;2023-01-25T05:06:02;76.25;;;28.88;;
25948;SDS011;13961;51.178;4.448;2023-01-25T05:08:27;74.47;;;29.13;;
25948;SDS011;13961;51.178;4.448;2023-01-25T05:10:53;72.28;;;30.00;;
25948;SDS011;13961;51.178;4.448;2023-01-25T05:13:20;77.47;;;29.10;;
25948;SDS011;13961;51.178;4.448;2023-01-25T05:15:45;84.30;;;29.77;;
25948;SDS011;13961;51.178;4.448;2023-01-25T05:18:11;73.85;;;28.38;;
25948;SDS011;13961;51.178;4.448;2023-01-25T05:20:36;74.30;;;29.90;;
25948;SDS011;13961;51.178;4.448;2023-01-25T05:23:02;77.55;;;31.60;;
25948;SDS011;13961;51.178;4.448;2023-01-25T05:25:28;77.90;;;29.55;;
25948;SDS011;13961;51.178;4.448;2023-01-25T05:28:12;79.03;;;29.10;;
25948;SDS011;13961;51.178;4.448;2023-01-25T05:30:38;77.43;;;28.83;;
25948;SDS011;13961;51.178;4.448;2023-01-25T05:33:04;77.55;;;30.15;;
25948;SDS011;13961;51.178;4.448;2023-01-25T05:35:30;76.78;;;29.40;;
25948;SDS011;13961;51.178;4.448;2023-01-25T05:37:57;76.55;;;29.25;;
25948;SDS011;13961;51.178;4.448;2023-01-25T05:40:23;79.32;;;28.27;;
25948;SDS011;13961;51.178;4.448;2023-01-25T05:42:55;78.00;;;29.73;;
25948;SDS011;13961;51.178;4.448;2023-01-25T05:45:21;77.57;;;29.02;;
25948;SDS011;13961;51.178;4.448;2023-01-25T05:47:56;78.85;;;28.70;;
25948;SDS011;13961;51.178;4.448;2023-01-25T05:50:22;70.60;;;28.85;;
25948;SDS011;13961;51.178;4.448;2023-01-25T05:52:49;78.00;;;31.25;;
25948;SDS011;13961;51.178;4.448;2023-01-25T05:55:15;71.20;;;27.65;;
25948;SDS011;13961;51.178;4.448;2023-01-25T05:57:41;70.38;;;28.83;;
25948;SDS011;13961;51.178;4.448;2023-01-25T06:00:06;74.18;;;28.27;;
25948;SDS011;13961;51.178;4.448;2023-01-25T06:02:33;72.20;;;29.05;;
25948;SDS011;13961;51.178;4.448;2023-01-25T06:04:59;77.13;;;29.23;;
25948;SDS011;13961;51.178;4.448;2023-01-25T06:07:25;71.95;;;28.67;;
25948;SDS011;13961;51.178;4.448;2023-01-25T06:09:51;71.55;;;27.85;;
25948;SDS011;13961;51.178;4.448;2023-01-25T06:12:20;76.30;;;29.42;;
25948;SDS011;13961;51.178;4.448;2023-01-25T06:14:46;77.78;;;29.42;;
25948;SDS011;13961;51.178;4.448;2023-01-25T06:17:12;74.15;;;28.42;;
25948;SDS011;13961;51.178;4.448;2023-01-25T06:19:39;77.00;;;28.77;;
25948;SDS011;13961;51.178;4.448;2023-01-25T06:22:05;73.13;;;28.52;;
25948;SDS011;13961;51.178;4.448;2023-01-25T06:24:33;77.43;;;29.10;;
25948;SDS011;13961;51.178;4.448;2023-01-25T06:26:58;76.75;;;30.05;;
25948;SDS011;13961;51.178;4.448;2023-01-25T06:29:24;77.93;;;31.27;;
25948;SDS011;13961;51.178;4.448;2023-01-25T06:31:50;78.75;;;29.90;;
25948;SDS011;13961;51.178;4.448;2023-01-25T06:34:15;84.35;;;30.70;;
25948;SDS011;13961;51.178;4.448;2023-01-25T06:36:41;76.55;;;30.27;;
25948;SDS011;13961;51.178;4.448;2023-01-25T06:39:07;77.70;;;30.35;;
25948;SDS011;13961;51.178;4.448;2023-01-25T06:41:33;80.35;;;29.27;;
25948;SDS011;13961;51.178;4.448;2023-01-25T06:43:58;73.45;;;29.30;;
25948;SDS011;13961;51.178;4.448;2023-01-25T06:46:24;77.13;;;29.17;;
25948;SDS011;13961;51.178;4.448;2023-01-25T06:48:50;74.82;;;28.33;;
25948;SDS011;13961;51.178;4.448;2023-01-25T06:51:16;77.60;;;29.98;;
25948;SDS011;13961;51.178;4.448;2023-01-25T06:53:43;77.22;;;27.88;;
25948;SDS011;13961;51.178;4.448;2023-01-25T06:56:12;78.47;;;29.08;;
25948;SDS011;13961;51.178;4.448;2023-01-25T06:58:45;72.70;;;27.80;;
25948;SDS011;13961;51.178;4.448;2023-01-25T07:01:19;70.97;;;27.33;;
25948;SDS011;13961;51.178;4.448;2023-01-25T07:03:50;75.03;;;28.85;;
25948;SDS011;13961;51.178;4.448;2023-01-25T07:06:18;74.55;;;28.38;;
25948;SDS011;13961;51.178;4.448;2023-01-25T07:08:44;82.65;;;29.23;;
25948;SDS011;13961;51.178;4.448;2023-01-25T07:11:10;73.63;;;28.58;;
25948;SDS011;13961;51.178;4.448;2023-01-25T07:13:38;76.03;;;29.58;;
25948;SDS011;13961;51.178;4.448;2023-01-25T07:16:05;74.75;;;28.80;;
25948;SDS011;13961;51.178;4.448;2023-01-25T07:18:33;72.20;;;29.02;;
25948;SDS011;13961;51.178;4.448;2023-01-25T07:21:05;76.25;;;28.63;;
25948;SDS011;13961;51.178;4.448;2023-01-25T07:23:33;72.15;;;27.85;;
25948;SDS011;13961;51.178;4.448;2023-01-25T07:26:01;80.43;;;29.45;;
25948;SDS011;13961;51.178;4.448;2023-01-25T07:28:29;71.85;;;28.15;;
25948;SDS011;13961;51.178;4.448;2023-01-25T07:30:56;74.32;;;28.42;;
25948;SDS011;13961;51.178;4.448;2023-01-25T07:33:28;78.65;;;28.67;;
25948;SDS011;13961;51.178;4.448;2023-01-25T07:35:58;73.18;;;28.80;;
25948;SDS011;13961;51.178;4.448;2023-01-25T07:38:28;75.80;;;28.00;;
25948;SDS011;13961;51.178;4.448;2023-01-25T07:40:53;76.40;;;28.70;;
25948;SDS011;13961;51.178;4.448;2023-01-25T07:43:19;69.30;;;27.52;;
25948;SDS011;13961;51.178;4.448;2023-01-25T07:45:45;72.00;;;28.38;;
25948;SDS011;13961;51.178;4.448;2023-01-25T07:48:14;67.90;;;26.95;;
25948;SDS011;13961;51.178;4.448;2023-01-25T07:50:41;74.55;;;28.15;;
25948;SDS011;13961;51.178;4.448;2023-01-25T07:53:11;74.97;;;27.98;;
25948;SDS011;13961;51.178;4.448;2023-01-25T07:55:37;74.95;;;27.60;;
25948;SDS011;13961;51.178;4.448;2023-01-25T07:58:03;81.22;;;30.85;;
25948;SDS011;13961;51.178;4.448;2023-01-25T08:00:29;70.50;;;28.08;;
25948;SDS011;13961;51.178;4.448;2023-01-25T08:02:55;71.40;;;28.55;;
25948;SDS011;13961;51.178;4.448;2023-01-25T08:05:20;76.07;;;29.33;;
25948;SDS011;13961;51.178;4.448;2023-01-25T08:07:46;70.28;;;27.33;;
25948;SDS011;13961;51.178;4.448;2023-01-25T08:10:12;71.30;;;27.27;;
25948;SDS011;13961;51.178;4.448;2023-01-25T08:12:39;78.40;;;28.58;;
25948;SDS011;13961;51.178;4.448;2023-01-25T08:15:10;70.07;;;28.30;;
25948;SDS011;13961;51.178;4.448;2023-01-25T08:17:37;70.60;;;27.00;;
25948;SDS011;13961;51.178;4.448;2023-01-25T08:20:03;76.07;;;30.00;;
25948;SDS011;13961;51.178;4.448;2023-01-25T08:22:30;75.03;;;27.73;;
25948;SDS011;13961;51.178;4.448;2023-01-25T08:24:55;72.57;;;26.85;;
25948;SDS011;13961;51.178;4.448;2023-01-25T08:27:21;76.28;;;26.83;;
25948;SDS011;13961;51.178;4.448;2023-01-25T08:29:47;73.55;;;27.05;;
25948;SDS011;13961;51.178;4.448;2023-01-25T08:32:14;77.80;;;28.65;;
25948;SDS011;13961;51.178;4.448;2023-01-25T08:34:40;73.07;;;27.00;;
25948;SDS011;13961;51.178;4.448;2023-01-25T08:37:06;73.97;;;28.73;;
25948;SDS011;13961;51.178;4.448;2023-01-25T08:39:32;80.70;;;29.05;;
25948;SDS011;13961;51.178;4.448;2023-01-25T08:41:57;77.60;;;29.10;;
25948;SDS011;13961;51.178;4.448;2023-01-25T08:44:23;75.85;;;28.13;;
25948;SDS011;13961;51.178;4.448;2023-01-25T08:46:50;90.60;;;31.33;;
25948;SDS011;13961;51.178;4.448;2023-01-25T08:49:15;94.47;;;30.63;;
25948;SDS011;13961;51.178;4.448;2023-01-25T08:51:41;80.38;;;28.70;;
25948;SDS011;13961;51.178;4.448;2023-01-25T08:54:09;76.47;;;28.90;;
25948;SDS011;13961;51.178;4.448;2023-01-25T08:56:38;75.00;;;28.73;;
25948;SDS011;13961;51.178;4.448;2023-01-25T08:59:05;71.70;;;29.00;;
25948;SDS011;13961;51.178;4.448;2023-01-25T09:01:31;79.38;;;27.15;;
25948;SDS011;13961;51.178;4.448;2023-01-25T09:03:57;77.03;;;29.13;;
25948;SDS011;13961;51.178;4.448;2023-01-25T09:06:23;71.32;;;27.33;;
25948;SDS011;13961;51.178;4.448;2023-01-25T09:08:49;83.25;;;30.25;;
25948;SDS011;13961;51.178;4.448;2023-01-25T09:11:15;75.18;;;27.23;;
25948;SDS011;13961;51.178;4.448;2023-01-25T09:13:43;77.35;;;27.88;;
25948;SDS011;13961;51.178;4.448;2023-01-25T09:16:13;76.75;;;29.73;;
25948;SDS011;13961;51.178;4.448;2023-01-25T09:18:41;56.22;;;21.55;;
25948;SDS011;13961;51.178;4.448;2023-01-25T09:21:09;73.43;;;27.27;;
25948;SDS011;13961;51.178;4.448;2023-01-25T09:23:36;74.75;;;28.98;;
25948;SDS011;13961;51.178;4.448;2023-01-25T09:26:03;76.25;;;27.80;;
25948;SDS011;13961;51.178;4.448;2023-01-25T09:28:29;83.47;;;30.35;;
25948;SDS011;13961;51.178;4.448;2023-01-25T09:30:56;78.57;;;30.35;;
25948;SDS011;13961;51.178;4.448;2023-01-25T09:33:24;75.60;;;29.25;;
25948;SDS011;13961;51.178;4.448;2023-01-25T09:35:53;79.93;;;30.27;;
25948;SDS011;13961;51.178;4.448;2023-01-25T09:38:19;81.00;;;31.33;;
25948;SDS011;13961;51.178;4.448;2023-01-25T09:40:56;83.18;;;30.90;;
25948;SDS011;13961;51.178;4.448;2023-01-25T09:46:01;88.15;;;31.48;;
25948;SDS011;13961;51.178;4.448;2023-01-25T09:48:45;81.72;;;28.67;;
25948;SDS011;13961;51.178;4.448;2023-01-25T09:51:46;89.10;;;31.50;;
25948;SDS011;13961;51.178;4.448;2023-01-25T09:54:35;90.35;;;30.45;;
25948;SDS011;13961;51.178;4.448;2023-01-25T09:57:08;84.65;;;31.40;;
25948;SDS011;13961;51.178;4.448;2023-01-25T09:59:56;86.25;;;30.73;;
25948;SDS011;13961;51.178;4.448;2023-01-25T10:05:07;89.82;;;30.73;;
25948;SDS011;13961;51.178;4.448;2023-01-25T10:10:16;92.32;;;32.75;;
25948;SDS011;13961;51.178;4.448;2023-01-25T10:12:48;93.50;;;31.77;;
25948;SDS011;13961;51.178;4.448;2023-01-25T10:15:18;95.90;;;33.28;;
25948;SDS011;13961;51.178;4.448;2023-01-25T10:18:34;113.45;;;34.25;;
25948;SDS011;13961;51.178;4.448;2023-01-25T10:20:46;105.72;;;34.58;;
25948;SDS011;13961;51.178;4.448;2023-01-25T10:23:31;95.88;;;33.42;;
25948;SDS011;13961;51.178;4.448;2023-01-25T10:26:28;105.00;;;32.80;;
25948;SDS011;13961;51.178;4.448;2023-01-25T10:31:41;97.95;;;33.75;;
25948;SDS011;13961;51.178;4.448;2023-01-25T10:34:17;94.30;;;32.08;;
25948;SDS011;13961;51.178;4.448;2023-01-25T10:36:46;90.00;;;33.15;;
25948;SDS011;13961;51.178;4.448;2023-01-25T10:39:17;101.93;;;34.83;;
25948;SDS011;13961;51.178;4.448;2023-01-25T10:44:40;102.93;;;34.10;;
25948;SDS011;13961;51.178;4.448;2023-01-25T10:47:11;97.82;;;32.50;;
25948;SDS011;13961;51.178;4.448;2023-01-25T10:49:50;98.97;;;33.63;;
25948;SDS011;13961;51.178;4.448;2023-01-25T10:55:01;102.38;;;33.58;;
25948;SDS011;13961;51.178;4.448;2023-01-25T10:58:02;96.68;;;32.28;;
25948;SDS011;13961;51.178;4.448;2023-01-25T11:00:30;106.97;;;36.63;;
25948;SDS011;13961;51.178;4.448;2023-01-25T11:03:04;95.25;;;33.70;;
25948;SDS011;13961;51.178;4.448;2023-01-25T11:05:44;103.93;;;33.95;;
25948;SDS011;13961;51.178;4.448;2023-01-25T11:08:53;102.65;;;34.30;;
25948;SDS011;13961;51.178;4.448;2023-01-25T11:11:57;84.50;;;27.40;;
25948;SDS011;13961;51.178;4.448;2023-01-25T11:14:01;111.30;;;36.13;;
25948;SDS011;13961;51.178;4.448;2023-01-25T11:16:43;100.13;;;34.75;;
25948;SDS011;13961;51.178;4.448;2023-01-25T11:19:25;100.90;;;34.65;;
25948;SDS011;13961;51.178;4.448;2023-01-25T11:21:56;108.68;;;35.70;;
25948;SDS011;13961;51.178;4.448;2023-01-25T11:24:24;101.40;;;34.97;;
25948;SDS011;13961;51.178;4.448;2023-01-25T11:29:41;96.03;;;33.70;;
25948;SDS011;13961;51.178;4.448;2023-01-25T11:32:13;104.07;;;33.72;;
25948;SDS011;13961;51.178;4.448;2023-01-25T11:34:47;103.55;;;34.63;;
25948;SDS011;13961;51.178;4.448;2023-01-25T11:37:21;103.22;;;34.83;;
25948;SDS011;13961;51.178;4.448;2023-01-25T11:59:00;106.13;;;33.60;;
25948;SDS011;13961;51.178;4.448;2023-01-25T12:07:50;103.28;;;34.85;;
25948;SDS011;13961;51.178;4.448;2023-01-25T12:18:50;88.47;;;31.88;;
25948;SDS011;13961;51.178;4.448;2023-01-25T12:22:33;95.70;;;32.17;;
25948;SDS011;13961;51.178;4.448;2023-01-25T12:24:53;90.07;;;31.92;;
25948;SDS011;13961;51.178;4.448;2023-01-25T12:27:30;94.50;;;30.17;;
25948;SDS011;13961;51.178;4.448;2023-01-25T12:36:00;97.07;;;31.05;;
25948;SDS011;13961;51.178;4.448;2023-01-25T12:38:41;95.03;;;32.30;;
25948;SDS011;13961;51.178;4.448;2023-01-25T12:44:08;94.90;;;31.75;;
25948;SDS011;13961;51.178;4.448;2023-01-25T12:49:21;102.30;;;31.80;;
25948;SDS011;13961;51.178;4.448;2023-01-25T12:51:55;99.50;;;31.65;;
25948;SDS011;13961;51.178;4.448;2023-01-25T12:54:32;101.57;;;32.00;;
25948;SDS011;13961;51.178;4.448;2023-01-25T13:10:47;81.47;;;29.77;;
25948;SDS011;13961;51.178;4.448;2023-01-25T13:13:21;78.95;;;25.73;;
25948;SDS011;13961;51.178;4.448;2023-01-25T13:15:47;89.90;;;30.13;;
25948;SDS011;13961;51.178;4.448;2023-01-25T13:21:00;82.50;;;27.65;;
25948;SDS011;13961;51.178;4.448;2023-01-25T13:23:33;61.45;;;20.75;;
25948;SDS011;13961;51.178;4.448;2023-01-25T13:28:58;79.95;;;29.45;;
25948;SDS011;13961;51.178;4.448;2023-01-25T13:34:54;79.30;;;29.27;;
25948;SDS011;13961;51.178;4.448;2023-01-25T13:37:04;80.63;;;27.77;;
25948;SDS011;13961;51.178;4.448;2023-01-25T13:39:46;83.35;;;29.05;;
25948;SDS011;13961;51.178;4.448;2023-01-25T13:44:39;77.10;;;27.23;;
25948;SDS011;13961;51.178;4.448;2023-01-25T13:47:12;78.78;;;29.17;;
25948;SDS011;13961;51.178;4.448;2023-01-25T13:52:24;81.38;;;29.15;;
25948;SDS011;13961;51.178;4.448;2023-01-25T13:54:54;75.72;;;28.48;;
25948;SDS011;13961;51.178;4.448;2023-01-25T13:57:25;86.85;;;29.83;;
25948;SDS011;13961;51.178;4.448;2023-01-25T14:00:03;81.93;;;29.58;;
25948;SDS011;13961;51.178;4.448;2023-01-25T14:02:32;76.72;;;28.20;;
25948;SDS011;13961;51.178;4.448;2023-01-25T14:04:59;81.55;;;28.50;;
25948;SDS011;13961;51.178;4.448;2023-01-25T14:07:31;81.45;;;29.10;;
25948;SDS011;13961;51.178;4.448;2023-01-25T14:10:05;83.45;;;28.98;;
25948;SDS011;13961;51.178;4.448;2023-01-25T14:15:36;78.38;;;28.95;;
25948;SDS011;13961;51.178;4.448;2023-01-25T14:18:03;86.40;;;30.05;;
25948;SDS011;13961;51.178;4.448;2023-01-25T14:20:40;76.95;;;28.70;;
25948;SDS011;13961;51.178;4.448;2023-01-25T14:25:51;80.90;;;28.17;;
25948;SDS011;13961;51.178;4.448;2023-01-25T14:28:18;76.40;;;27.42;;
25948;SDS011;13961;51.178;4.448;2023-01-25T14:30:49;73.68;;;27.42;;
25948;SDS011;13961;51.178;4.448;2023-01-25T14:33:37;78.63;;;28.83;;
25948;SDS011;13961;51.178;4.448;2023-01-25T14:36:10;76.03;;;27.65;;
25948;SDS011;13961;51.178;4.448;2023-01-25T14:38:39;85.38;;;27.45;;
25948;SDS011;13961;51.178;4.448;2023-01-25T14:43:56;71.45;;;26.33;;
25948;SDS011;13961;51.178;4.448;2023-01-25T14:48:51;79.38;;;27.48;;
25948;SDS011;13961;51.178;4.448;2023-01-25T14:51:40;73.28;;;26.10;;
25948;SDS011;13961;51.178;4.448;2023-01-25T15:00:04;76.97;;;27.35;;
25948;SDS011;13961;51.178;4.448;2023-01-25T15:07:55;76.43;;;26.70;;
25948;SDS011;13961;51.178;4.448;2023-01-25T15:15:35;79.00;;;27.13;;
25948;SDS011;13961;51.178;4.448;2023-01-25T15:18:01;84.25;;;29.48;;
25948;SDS011;13961;51.178;4.448;2023-01-25T15:20:29;83.43;;;29.30;;
25948;SDS011;13961;51.178;4.448;2023-01-25T15:25:56;91.65;;;31.08;;
25948;SDS011;13961;51.178;4.448;2023-01-25T15:28:29;79.00;;;25.90;;
25948;SDS011;13961;51.178;4.448;2023-01-25T15:30:59;83.28;;;28.60;;
25948;SDS011;13961;51.178;4.448;2023-01-25T15:33:29;78.80;;;29.75;;
25948;SDS011;13961;51.178;4.448;2023-01-25T15:35:56;86.30;;;28.48;;
25948;SDS011;13961;51.178;4.448;2023-01-25T15:38:23;89.25;;;29.75;;
25948;SDS011;13961;51.178;4.448;2023-01-25T15:40:49;94.18;;;31.75;;
25948;SDS011;13961;51.178;4.448;2023-01-25T15:43:16;89.65;;;29.50;;
25948;SDS011;13961;51.178;4.448;2023-01-25T15:45:45;92.75;;;29.70;;
25948;SDS011;13961;51.178;4.448;2023-01-25T15:48:14;87.22;;;28.27;;
25948;SDS011;13961;51.178;4.448;2023-01-25T15:50:51;82.53;;;28.63;;
25948;SDS011;13961;51.178;4.448;2023-01-25T15:53:19;84.55;;;27.83;;
25948;SDS011;13961;51.178;4.448;2023-01-25T15:55:45;87.75;;;28.02;;
25948;SDS011;13961;51.178;4.448;2023-01-25T15:58:19;77.47;;;25.92;;
25948;SDS011;13961;51.178;4.448;2023-01-25T16:00:50;94.47;;;28.98;;
25948;SDS011;13961;51.178;4.448;2023-01-25T16:03:16;91.55;;;29.35;;
25948;SDS011;13961;51.178;4.448;2023-01-25T16:05:44;86.25;;;27.25;;
25948;SDS011;13961;51.178;4.448;2023-01-25T16:08:12;86.20;;;29.17;;
25948;SDS011;13961;51.178;4.448;2023-01-25T16:10:40;95.68;;;30.52;;
25948;SDS011;13961;51.178;4.448;2023-01-25T16:13:07;93.43;;;29.98;;
25948;SDS011;13961;51.178;4.448;2023-01-25T16:15:34;95.20;;;30.13;;
25948;SDS011;13961;51.178;4.448;2023-01-25T16:18:00;83.25;;;28.48;;
25948;SDS011;13961;51.178;4.448;2023-01-25T16:20:26;86.57;;;28.75;;
25948;SDS011;13961;51.178;4.448;2023-01-25T16:22:52;81.93;;;26.70;;
25948;SDS011;13961;51.178;4.448;2023-01-25T16:25:17;94.50;;;29.67;;
25948;SDS011;13961;51.178;4.448;2023-01-25T16:27:43;85.80;;;27.58;;
25948;SDS011;13961;51.178;4.448;2023-01-25T16:30:20;52.78;;;17.10;;
25948;SDS011;13961;51.178;4.448;2023-01-25T16:32:47;85.22;;;28.40;;
25948;SDS011;13961;51.178;4.448;2023-01-25T16:35:15;69.70;;;24.38;;
25948;SDS011;13961;51.178;4.448;2023-01-25T16:37:41;85.50;;;28.60;;
25948;SDS011;13961;51.178;4.448;2023-01-25T16:40:13;82.05;;;27.15;;
25948;SDS011;13961;51.178;4.448;2023-01-25T16:42:49;89.07;;;28.42;;